createdAt,value
2022-08-05T00:02:52.382Z,17
2022-08-05T00:06:03.524Z,19
2022-08-05T00:09:39.815Z,25
2022-08-05T00:12:56.267Z,21
2022-08-05T00:15:56.548Z,22
2022-08-05T00:18:55.764Z,20
2022-08-05T00:22:38.121Z,18
2022-08-05T00:25:45.814Z,20
2022-08-05T00:28:49.216Z,28
2022-08-05T00:31:54.606Z,18
2022-08-05T00:34:57.124Z,19
2022-08-05T00:37:56.497Z,21
2022-08-05T00:41:46.709Z,15
2022-08-05T00:44:44.163Z,17
2022-08-05T00:47:53.546Z,17
2022-08-05T00:50:54.792Z,16
2022-08-05T00:54:37.190Z,16
2022-08-05T00:57:55.781Z,17
2022-08-05T01:00:47.926Z,20
2022-08-05T01:03:53.108Z,19
2022-08-05T01:07:35.481Z,17
2022-08-05T01:10:40.800Z,17
2022-08-05T01:13:58.068Z,15
2022-08-05T01:16:52.249Z,17
2022-08-05T01:20:02.611Z,15
2022-08-05T01:23:39.102Z,14
2022-08-05T01:26:44.470Z,15
2022-08-05T01:29:49.726Z,15
2022-08-05T01:32:46.849Z,14
2022-08-05T01:35:53.155Z,18
2022-08-05T01:39:00.334Z,16
2022-08-05T01:42:39.810Z,17
2022-08-05T01:45:45.119Z,21
2022-08-05T01:48:50.443Z,21
2022-08-05T01:51:55.753Z,20
2022-08-05T01:55:38.113Z,18
2022-08-05T01:58:44.893Z,19
2022-08-05T02:01:48.816Z,19
2022-08-05T02:04:54.066Z,18
2022-08-05T02:08:40.791Z,18
2022-08-05T02:11:42.088Z,19
2022-08-05T02:14:47.174Z,18
2022-08-05T02:18:29.105Z,19
2022-08-05T02:20:58.833Z,21
2022-08-05T02:24:40.040Z,21
2022-08-05T02:27:57.826Z,21
2022-08-05T02:30:51.613Z,19
2022-08-05T02:33:48.388Z,20
2022-08-05T02:36:53.080Z,20
2022-08-05T02:40:35.471Z,18
2022-08-05T02:44:02.060Z,19
2022-08-05T02:46:53.638Z,21
2022-08-05T02:49:51.392Z,17
2022-08-05T02:52:56.756Z,16
2022-08-05T02:56:39.057Z,18
2022-08-05T02:59:47.986Z,19
2022-08-05T03:02:49.739Z,19
2022-08-05T03:06:53.485Z,16
2022-08-05T03:09:38.793Z,17
2022-08-05T03:12:42.686Z,21
2022-08-05T03:15:48.003Z,16
2022-08-05T03:18:53.343Z,16
2022-08-05T03:21:58.656Z,14
2022-08-05T03:26:05.169Z,16
2022-08-05T03:28:46.302Z,15
2022-08-05T03:31:56.385Z,16
2022-08-05T03:34:49.631Z,15
2022-08-05T03:37:54.042Z,20
2022-08-05T03:41:38.710Z,16
2022-08-05T03:44:41.783Z,16
2022-08-05T03:47:47.045Z,13
2022-08-05T03:50:52.409Z,14
2022-08-05T03:54:59.443Z,15
2022-08-05T03:57:42.142Z,17
2022-08-05T04:00:46.428Z,13
2022-08-05T04:03:57.062Z,14
2022-08-05T04:06:56.129Z,15
2022-08-05T04:10:38.492Z,17
2022-08-05T04:13:49.503Z,18
2022-08-05T04:16:48.994Z,15
2022-08-05T04:19:54.682Z,15
2022-08-05T04:23:58.395Z,16
2022-08-05T04:26:42.020Z,17
2022-08-05T04:29:47.285Z,15
2022-08-05T04:34:37.559Z,14
2022-08-05T04:38:01.816Z,14
2022-08-05T04:40:47.954Z,14
2022-08-05T04:43:52.093Z,14
2022-08-05T04:46:56.813Z,16
2022-08-05T04:51:02.072Z,16
2022-08-05T04:53:44.518Z,16
2022-08-05T04:56:49.810Z,14
2022-08-05T04:59:55.134Z,14
2022-08-05T05:03:41.724Z,16
2022-08-05T05:06:44.603Z,15
2022-08-05T05:10:56.038Z,14
2022-08-05T05:12:53.417Z,15
2022-08-05T05:16:01.834Z,14
2022-08-05T05:19:44.250Z,13
2022-08-05T05:22:46.416Z,14
2022-08-05T05:25:51.715Z,17
2022-08-05T05:28:57.115Z,15
2022-08-05T05:32:39.398Z,13
2022-08-05T05:35:37.851Z,17
2022-08-05T05:38:41.827Z,15
2022-08-05T05:41:54.199Z,15
2022-08-05T05:44:52.465Z,14
2022-08-05T05:48:05.296Z,13
2022-08-05T05:52:13.356Z,12
2022-08-05T05:54:49.984Z,13
2022-08-05T05:57:52.491Z,13
2022-08-05T06:00:56.072Z,15
2022-08-05T06:04:38.506Z,14
2022-08-05T06:07:57.750Z,15
2022-08-05T06:10:52.768Z,13
2022-08-05T06:13:55.312Z,14
2022-08-05T06:17:49.982Z,14
2022-08-05T06:20:42.085Z,15
2022-08-05T06:23:47.396Z,15
2022-08-05T06:26:53.232Z,13
2022-08-05T06:30:04.127Z,16
2022-08-05T06:34:06.508Z,11
2022-08-05T06:36:57.768Z,13
2022-08-05T06:39:43.219Z,12
2022-08-05T06:42:48.140Z,14
2022-08-05T06:46:04.300Z,10
2022-08-05T06:48:59.629Z,12
2022-08-05T06:52:41.130Z,13
2022-08-05T06:55:46.404Z,15
2022-08-05T06:58:51.753Z,14
2022-08-05T07:01:57.057Z,12
2022-08-05T07:05:41.064Z,14
2022-08-05T07:08:47.424Z,12
2022-08-05T07:11:51.645Z,13
2022-08-05T07:14:55.347Z,13
2022-08-05T07:18:37.699Z,12
2022-08-05T07:21:59.577Z,13
2022-08-05T07:24:52.596Z,12
2022-08-05T07:27:56.993Z,13
2022-08-05T07:31:40.625Z,14
2022-08-05T07:34:42.364Z,13
2022-08-05T07:37:39.561Z,11
2022-08-05T07:40:44.466Z,13
2022-08-05T07:43:49.094Z,11
2022-08-05T07:46:54.361Z,10
2022-08-05T07:50:36.763Z,12
2022-08-05T07:53:50.147Z,11
2022-08-05T07:57:03.080Z,7
2022-08-05T07:59:53.565Z,9
2022-08-05T08:03:13.473Z,7
2022-08-05T08:06:40.350Z,10
2022-08-05T08:09:45.731Z,14
2022-08-05T08:12:50.995Z,13
2022-08-05T08:16:34.016Z,11
2022-08-05T08:20:00.583Z,16
2022-08-05T08:22:43.995Z,9
2022-08-05T08:25:58.984Z,11
2022-08-05T08:28:55.145Z,9
2022-08-05T08:32:39.872Z,9
2022-08-05T08:36:50.538Z,12
2022-08-05T08:39:53.601Z,11
2022-08-05T08:44:54.683Z,11
2022-08-05T08:46:41.219Z,13
2022-08-05T08:50:07.949Z,12
2022-08-05T08:52:52.942Z,11
2022-08-05T08:56:03.349Z,11
2022-08-05T08:59:41.785Z,12
2022-08-05T09:02:44.831Z,13
2022-08-05T09:06:08.355Z,12
2022-08-05T09:08:55.447Z,14
2022-08-05T09:12:37.819Z,10
2022-08-05T09:15:43.143Z,11
2022-08-05T09:18:48.430Z,12
2022-08-05T09:22:18.275Z,10
2022-08-05T09:26:00.543Z,12
2022-08-05T09:28:41.425Z,12
2022-08-05T09:32:40.536Z,13
2022-08-05T09:36:35.045Z,12
2022-08-05T09:39:42.071Z,13
2022-08-05T09:42:48.355Z,13
2022-08-05T09:46:05.570Z,11
2022-08-05T09:49:07.502Z,14
2022-08-05T09:52:45.039Z,11
2022-08-05T09:55:55.798Z,10
2022-08-05T09:58:50.220Z,12
2022-08-05T10:01:58.113Z,11
2022-08-05T10:05:36.982Z,14
2022-08-05T10:08:42.316Z,11
2022-08-05T10:11:47.642Z,13
2022-08-05T10:14:54.308Z,12
2022-08-05T10:17:58.192Z,14
2022-08-05T10:21:41.143Z,13
2022-08-05T10:24:45.991Z,12
2022-08-05T10:28:09.191Z,14
2022-08-05T10:34:40.786Z,14
2022-08-05T10:37:37.399Z,13
2022-08-05T10:40:43.574Z,14
2022-08-05T10:43:46.647Z,12
2022-08-05T10:46:54.122Z,16
2022-08-05T10:50:21.097Z,15
2022-08-05T10:53:39.598Z,16
2022-08-05T10:56:45.075Z,16
2022-08-05T11:00:01.674Z,18
2022-08-05T11:02:55.680Z,17
2022-08-05T11:06:37.928Z,16
2022-08-05T11:09:45.660Z,17
2022-08-05T11:13:20.831Z,16
2022-08-05T11:16:34.106Z,16
2022-08-05T11:18:59.132Z,20
2022-08-05T11:22:42.228Z,19
2022-08-05T11:26:06.332Z,18
2022-08-05T11:28:52.150Z,19
2022-08-05T11:32:00.507Z,17
2022-08-05T11:35:40.071Z,18
2022-08-05T11:38:45.618Z,15
2022-08-05T11:41:56.140Z,19
2022-08-05T11:44:53.513Z,19
2022-08-05T11:47:54.653Z,18
2022-08-05T11:50:58.198Z,20
2022-08-05T11:54:41.484Z,18
2022-08-05T11:58:08.930Z,17
2022-08-05T12:00:52.766Z,18
2022-08-05T12:03:56.549Z,18
2022-08-05T12:08:02.983Z,18
2022-08-05T12:10:45.636Z,17
2022-08-05T12:13:50.054Z,16
2022-08-05T12:16:54.817Z,18
2022-08-05T12:20:44.349Z,17
2022-08-05T12:23:43.027Z,17
2022-08-05T12:26:47.810Z,18
2022-08-05T12:29:53.331Z,21
2022-08-05T12:32:58.465Z,18
2022-08-05T12:36:40.823Z,18
2022-08-05T12:39:38.659Z,21
2022-08-05T12:42:43.272Z,18
2022-08-05T12:45:50.122Z,20
2022-08-05T12:48:53.850Z,19
2022-08-05T12:52:38.257Z,21
2022-08-05T12:55:41.528Z,18
2022-08-05T12:58:51.124Z,21
2022-08-05T13:01:59.188Z,20
2022-08-05T13:04:57.463Z,15
2022-08-05T13:08:39.918Z,16
2022-08-05T13:12:02.458Z,15
2022-08-05T13:14:59.273Z,15
2022-08-05T13:17:55.797Z,14
2022-08-05T13:21:47.845Z,13
2022-08-05T13:24:51.300Z,14
2022-08-05T13:27:50.255Z,15
2022-08-05T13:30:54.111Z,14
2022-08-05T13:34:36.448Z,16
2022-08-05T13:38:51.832Z,14
2022-08-05T13:41:53.018Z,14
2022-08-05T13:44:58.908Z,14
2022-08-05T13:48:56.869Z,15
2022-08-05T13:51:47.074Z,13
2022-08-05T13:54:53.480Z,14
2022-08-05T13:57:56.607Z,15
2022-08-05T14:01:44.488Z,16
2022-08-05T14:04:49.362Z,15
2022-08-05T14:07:56.542Z,15
2022-08-05T14:10:59.589Z,13
2022-08-05T14:14:37.303Z,13
2022-08-05T14:17:42.563Z,13
2022-08-05T14:20:48.425Z,12
2022-08-05T14:23:53.225Z,15
2022-08-05T14:27:16.010Z,14
2022-08-05T14:30:40.921Z,14
2022-08-05T14:33:56.872Z,16
2022-08-05T14:38:35.762Z,13
2022-08-05T14:41:42.863Z,15
2022-08-05T14:44:45.141Z,13
2022-08-05T14:47:58.702Z,14
2022-08-05T14:50:55.787Z,12
2022-08-05T14:54:38.132Z,14
2022-08-05T14:57:54.918Z,15
2022-08-05T15:00:58.106Z,14
2022-08-05T15:03:54.100Z,13
2022-08-05T15:08:05.885Z,13
2022-08-05T15:10:41.768Z,14
2022-08-05T15:13:50.284Z,15
2022-08-05T15:16:52.364Z,15
2022-08-05T15:19:57.665Z,15
2022-08-05T15:23:40.039Z,14
2022-08-05T15:26:45.364Z,18
2022-08-05T15:29:50.675Z,23
2022-08-05T15:32:56.005Z,20
2022-08-05T15:36:38.364Z,22
2022-08-05T15:40:42.481Z,31
2022-08-05T15:42:50.163Z,34
2022-08-05T15:46:00.004Z,32
2022-08-05T15:48:22.533Z,34
2022-08-05T15:50:43.735Z,36
2022-08-05T15:53:50.436Z,32
2022-08-05T15:56:53.202Z,38
2022-08-05T15:59:58.563Z,41
2022-08-05T16:03:41.226Z,36
2022-08-05T16:08:37.380Z,39
2022-08-05T16:11:43.633Z,43
2022-08-05T16:14:48.031Z,45
2022-08-05T16:17:57.618Z,43
2022-08-05T16:21:59.059Z,40
2022-08-05T16:24:51.462Z,37
2022-08-05T16:27:47.505Z,39
2022-08-05T16:30:51.634Z,43
2022-08-05T16:33:56.961Z,44
2022-08-05T16:38:03.992Z,38
2022-08-05T16:41:21.567Z,32
2022-08-05T16:43:56.213Z,36
2022-08-05T16:46:55.576Z,29
2022-08-05T16:50:29.425Z,28
2022-08-05T16:52:57.648Z,26
2022-08-05T16:56:41.441Z,22
2022-08-05T17:00:01.612Z,23
2022-08-05T17:02:50.653Z,21
2022-08-05T17:05:59.392Z,18
2022-08-05T17:09:39.095Z,18
2022-08-05T17:12:50.831Z,20
2022-08-05T17:15:52.967Z,17
2022-08-05T17:18:54.288Z,16
2022-08-05T17:22:36.641Z,15
2022-08-05T17:25:42.259Z,17
2022-08-05T17:28:47.389Z,14
2022-08-05T17:31:57.500Z,17
2022-08-05T17:34:58.190Z,16
2022-08-05T17:38:40.232Z,15
2022-08-05T17:42:17.080Z,13
2022-08-05T17:44:51.491Z,12
2022-08-05T17:47:56.416Z,11
2022-08-05T17:51:30.371Z,14
2022-08-05T17:53:58.616Z,13
2022-08-05T17:57:40.999Z,12
2022-08-05T18:00:47.368Z,13
2022-08-05T18:03:58.804Z,12
2022-08-05T18:07:00.269Z,12
2022-08-05T18:10:39.287Z,10
2022-08-05T18:13:44.576Z,11
2022-08-05T18:16:51.649Z,10
2022-08-05T18:19:55.238Z,9
2022-08-05T18:23:40.781Z,10
2022-08-05T18:26:43.852Z,8
2022-08-05T18:29:53.802Z,12
2022-08-05T18:33:00.575Z,12
2022-08-05T18:36:01.475Z,10
2022-08-05T18:39:42.639Z,7
2022-08-05T18:42:46.592Z,9
2022-08-05T18:45:51.855Z,8
2022-08-05T18:50:42.043Z,8
2022-08-05T18:53:46.022Z,8
2022-08-05T18:56:51.999Z,10
2022-08-05T19:00:02.139Z,10
2022-08-05T19:03:52.840Z,7
2022-08-05T19:06:44.801Z,7
2022-08-05T19:09:49.042Z,8
2022-08-05T19:12:54.374Z,8
2022-08-05T19:16:46.962Z,8
2022-08-05T19:19:44.222Z,9
2022-08-05T19:22:47.373Z,10
2022-08-05T19:25:52.711Z,5
2022-08-05T19:28:58.055Z,7
2022-08-05T19:32:40.345Z,9
2022-08-05T19:35:56.212Z,8
2022-08-05T19:38:50.979Z,9
2022-08-05T19:41:58.610Z,7
2022-08-05T19:45:38.664Z,6
2022-08-05T19:48:43.958Z,6
2022-08-05T19:52:06.245Z,6
2022-08-05T19:54:46.403Z,6
2022-08-05T19:58:02.782Z,7
2022-08-05T20:00:57.068Z,6
2022-08-05T20:04:42.938Z,8
2022-08-05T20:07:47.663Z,7
2022-08-05T20:10:50.033Z,7
2022-08-05T20:13:58.563Z,7
2022-08-05T20:17:37.711Z,8
2022-08-05T20:20:42.994Z,8
2022-08-05T20:23:50.058Z,8
2022-08-05T20:26:53.690Z,8
2022-08-05T20:30:36.026Z,9
2022-08-05T20:33:42.446Z,8
2022-08-05T20:36:46.651Z,10
2022-08-05T20:39:51.938Z,7
2022-08-05T20:42:59.227Z,8
2022-08-05T20:45:47.595Z,10
2022-08-05T20:47:53.768Z,11
2022-08-05T20:50:21.988Z,9
2022-08-05T20:52:42.110Z,9
2022-08-05T20:55:55.848Z,8
2022-08-05T20:58:52.702Z,6
2022-08-05T21:01:58.157Z,9
2022-08-05T21:05:48.488Z,8
2022-08-05T21:08:45.674Z,7
2022-08-05T21:12:07.837Z,8
2022-08-05T21:14:56.319Z,9
2022-08-05T21:18:38.660Z,9
2022-08-05T21:21:50.706Z,9
2022-08-05T21:24:51.739Z,9
2022-08-05T21:27:54.587Z,10
2022-08-05T21:31:40.998Z,9
2022-08-05T21:34:42.298Z,8
2022-08-05T21:37:52.818Z,9
2022-08-05T21:40:52.897Z,10
2022-08-05T21:44:01.429Z,9
2022-08-05T21:47:55.470Z,8
2022-08-05T21:52:29.030Z,9
2022-08-05T21:54:57.542Z,8
2022-08-05T21:58:42.208Z,11
2022-08-05T22:01:44.808Z,10
2022-08-05T22:04:50.176Z,8
2022-08-05T22:07:59.619Z,10
2022-08-05T22:11:37.868Z,11
2022-08-05T22:14:43.170Z,11
2022-08-05T22:17:48.615Z,12
2022-08-05T22:20:53.767Z,8
2022-08-05T22:24:39.893Z,11
2022-08-05T22:28:04.746Z,8
2022-08-05T22:30:55.724Z,11
2022-08-05T22:33:56.237Z,8
2022-08-05T22:36:58.370Z,11
2022-08-05T22:40:39.734Z,9
2022-08-05T22:43:45.053Z,10
2022-08-05T22:46:50.350Z,9
2022-08-05T22:50:18.881Z,8
2022-08-05T22:53:35.737Z,9
2022-08-05T22:55:59.239Z,9
2022-08-05T22:59:45.695Z,11
2022-08-05T23:02:46.445Z,8
2022-08-05T23:05:51.094Z,8
2022-08-05T23:08:56.369Z,10
2022-08-05T23:12:38.766Z,11
2022-08-05T23:15:44.085Z,11
2022-08-05T23:18:49.384Z,8
2022-08-05T23:21:54.674Z,9
2022-08-05T23:25:50.483Z,11
2022-08-05T23:28:43.128Z,10
2022-08-05T23:31:47.664Z,9
2022-08-05T23:34:53.006Z,11
2022-08-05T23:37:58.309Z,7
2022-08-05T23:41:40.980Z,10
2022-08-05T23:44:45.996Z,8
2022-08-05T23:47:53.605Z,7
2022-08-05T23:52:49.626Z,8
2022-08-05T23:55:44.939Z,9
2022-08-05T23:58:50.204Z,10
